sensor_id;sensor_type;location;lat;lon;timestamp;P1;durP1;ratioP1;P2;durP2;ratioP2
70052;SDS011;57398;52.032;4.376;2022-07-03T00:00:50;6.53;;;2.60;;
70052;SDS011;57398;52.032;4.376;2022-07-03T00:03:18;4.57;;;2.30;;
70052;SDS011;57398;52.032;4.376;2022-07-03T00:05:46;4.47;;;2.20;;
70052;SDS011;57398;52.032;4.376;2022-07-03T00:08:13;4.13;;;2.08;;
70052;SDS011;57398;52.032;4.376;2022-07-03T00:10:41;4.85;;;1.90;;
70052;SDS011;57398;52.032;4.376;2022-07-03T00:13:08;4.45;;;2.10;;
70052;SDS011;57398;52.032;4.376;2022-07-03T00:15:36;6.17;;;2.30;;
70052;SDS011;57398;52.032;4.376;2022-07-03T00:18:06;4.25;;;1.90;;
70052;SDS011;57398;52.032;4.376;2022-07-03T00:20:36;4.55;;;2.00;;
70052;SDS011;57398;52.032;4.376;2022-07-03T00:23:06;4.50;;;1.70;;
70052;SDS011;57398;52.032;4.376;2022-07-03T00:25:35;4.75;;;1.73;;
70052;SDS011;57398;52.032;4.376;2022-07-03T00:28:03;5.47;;;1.93;;
70052;SDS011;57398;52.032;4.376;2022-07-03T00:30:31;4.20;;;1.67;;
70052;SDS011;57398;52.032;4.376;2022-07-03T00:32:59;4.35;;;1.50;;
70052;SDS011;57398;52.032;4.376;2022-07-03T00:35:28;5.13;;;1.90;;
70052;SDS011;57398;52.032;4.376;2022-07-03T00:37:56;3.97;;;1.70;;
70052;SDS011;57398;52.032;4.376;2022-07-03T00:40:24;3.43;;;1.23;;
70052;SDS011;57398;52.032;4.376;2022-07-03T00:42:52;4.35;;;1.60;;
70052;SDS011;57398;52.032;4.376;2022-07-03T00:45:20;4.20;;;1.65;;
70052;SDS011;57398;52.032;4.376;2022-07-03T00:47:48;3.78;;;1.42;;
70052;SDS011;57398;52.032;4.376;2022-07-03T00:50:15;3.70;;;1.38;;
70052;SDS011;57398;52.032;4.376;2022-07-03T00:52:46;3.70;;;1.40;;
70052;SDS011;57398;52.032;4.376;2022-07-03T00:55:14;3.53;;;1.40;;
70052;SDS011;57398;52.032;4.376;2022-07-03T00:57:43;3.78;;;1.50;;
70052;SDS011;57398;52.032;4.376;2022-07-03T01:00:11;3.90;;;1.25;;
70052;SDS011;57398;52.032;4.376;2022-07-03T01:02:40;5.35;;;1.30;;
70052;SDS011;57398;52.032;4.376;2022-07-03T01:05:16;3.08;;;1.27;;
70052;SDS011;57398;52.032;4.376;2022-07-03T01:07:51;3.97;;;1.27;;
70052;SDS011;57398;52.032;4.376;2022-07-03T01:10:27;3.38;;;1.02;;
70052;SDS011;57398;52.032;4.376;2022-07-03T01:13:00;4.05;;;0.98;;
70052;SDS011;57398;52.032;4.376;2022-07-03T01:15:34;2.95;;;0.90;;
70052;SDS011;57398;52.032;4.376;2022-07-03T01:18:07;3.05;;;1.10;;
70052;SDS011;57398;52.032;4.376;2022-07-03T01:20:40;2.90;;;1.13;;
70052;SDS011;57398;52.032;4.376;2022-07-03T01:23:12;4.15;;;1.60;;
70052;SDS011;57398;52.032;4.376;2022-07-03T01:25:49;3.25;;;1.20;;
70052;SDS011;57398;52.032;4.376;2022-07-03T01:28:17;3.63;;;1.20;;
70052;SDS011;57398;52.032;4.376;2022-07-03T01:30:46;3.58;;;1.10;;
70052;SDS011;57398;52.032;4.376;2022-07-03T01:33:15;6.20;;;1.30;;
70052;SDS011;57398;52.032;4.376;2022-07-03T01:35:46;2.80;;;0.85;;
70052;SDS011;57398;52.032;4.376;2022-07-03T01:38:14;3.78;;;1.10;;
70052;SDS011;57398;52.032;4.376;2022-07-03T01:40:42;2.67;;;0.90;;
70052;SDS011;57398;52.032;4.376;2022-07-03T01:43:11;3.28;;;0.98;;
70052;SDS011;57398;52.032;4.376;2022-07-03T01:45:41;5.10;;;1.10;;
70052;SDS011;57398;52.032;4.376;2022-07-03T01:48:10;3.78;;;1.08;;
70052;SDS011;57398;52.032;4.376;2022-07-03T01:50:38;3.40;;;1.00;;
70052;SDS011;57398;52.032;4.376;2022-07-03T01:53:06;5.03;;;0.90;;
70052;SDS011;57398;52.032;4.376;2022-07-03T01:55:34;3.03;;;1.08;;
70052;SDS011;57398;52.032;4.376;2022-07-03T01:58:02;3.30;;;1.10;;
70052;SDS011;57398;52.032;4.376;2022-07-03T02:00:30;4.40;;;1.10;;
70052;SDS011;57398;52.032;4.376;2022-07-03T02:02:59;4.32;;;1.35;;
70052;SDS011;57398;52.032;4.376;2022-07-03T02:05:34;5.05;;;1.10;;
70052;SDS011;57398;52.032;4.376;2022-07-03T02:10:52;3.47;;;1.10;;
70052;SDS011;57398;52.032;4.376;2022-07-03T02:13:22;5.15;;;1.60;;
70052;SDS011;57398;52.032;4.376;2022-07-03T02:15:51;7.10;;;1.52;;
70052;SDS011;57398;52.032;4.376;2022-07-03T02:18:24;5.97;;;1.58;;
70052;SDS011;57398;52.032;4.376;2022-07-03T02:20:54;6.28;;;1.80;;
70052;SDS011;57398;52.032;4.376;2022-07-03T02:23:27;4.10;;;1.60;;
70052;SDS011;57398;52.032;4.376;2022-07-03T02:25:57;5.10;;;1.48;;
70052;SDS011;57398;52.032;4.376;2022-07-03T02:28:30;4.55;;;1.40;;
70052;SDS011;57398;52.032;4.376;2022-07-03T02:30:59;4.70;;;1.67;;
70052;SDS011;57398;52.032;4.376;2022-07-03T02:33:30;4.32;;;1.60;;
70052;SDS011;57398;52.032;4.376;2022-07-03T02:35:57;5.27;;;1.60;;
70052;SDS011;57398;52.032;4.376;2022-07-03T02:38:25;5.57;;;1.80;;
70052;SDS011;57398;52.032;4.376;2022-07-03T02:40:55;5.50;;;1.73;;
70052;SDS011;57398;52.032;4.376;2022-07-03T02:43:33;3.70;;;1.50;;
70052;SDS011;57398;52.032;4.376;2022-07-03T02:46:06;6.07;;;1.30;;
70052;SDS011;57398;52.032;4.376;2022-07-03T02:48:48;4.17;;;1.40;;
70052;SDS011;57398;52.032;4.376;2022-07-03T02:51:20;3.53;;;1.50;;
70052;SDS011;57398;52.032;4.376;2022-07-03T02:53:52;4.72;;;1.23;;
70052;SDS011;57398;52.032;4.376;2022-07-03T02:56:23;5.43;;;1.60;;
70052;SDS011;57398;52.032;4.376;2022-07-03T02:58:53;5.18;;;1.38;;
70052;SDS011;57398;52.032;4.376;2022-07-03T03:01:29;3.47;;;1.40;;
70052;SDS011;57398;52.032;4.376;2022-07-03T03:04:02;4.75;;;1.88;;
70052;SDS011;57398;52.032;4.376;2022-07-03T03:06:33;5.97;;;1.80;;
70052;SDS011;57398;52.032;4.376;2022-07-03T03:09:03;5.95;;;1.42;;
70052;SDS011;57398;52.032;4.376;2022-07-03T03:11:32;6.20;;;1.45;;
70052;SDS011;57398;52.032;4.376;2022-07-03T03:14:05;4.53;;;1.40;;
70052;SDS011;57398;52.032;4.376;2022-07-03T03:16:36;4.78;;;1.48;;
70052;SDS011;57398;52.032;4.376;2022-07-03T03:19:03;3.92;;;1.30;;
70052;SDS011;57398;52.032;4.376;2022-07-03T03:21:31;6.63;;;1.20;;
70052;SDS011;57398;52.032;4.376;2022-07-03T03:23:58;6.15;;;1.30;;
70052;SDS011;57398;52.032;4.376;2022-07-03T03:26:27;4.87;;;1.37;;
70052;SDS011;57398;52.032;4.376;2022-07-03T03:28:57;4.20;;;1.60;;
70052;SDS011;57398;52.032;4.376;2022-07-03T03:31:25;6.88;;;1.48;;
70052;SDS011;57398;52.032;4.376;2022-07-03T03:33:55;5.05;;;1.55;;
70052;SDS011;57398;52.032;4.376;2022-07-03T03:36:22;4.43;;;1.58;;
70052;SDS011;57398;52.032;4.376;2022-07-03T03:38:50;4.37;;;1.67;;
70052;SDS011;57398;52.032;4.376;2022-07-03T03:41:17;4.38;;;1.50;;
70052;SDS011;57398;52.032;4.376;2022-07-03T03:43:46;3.83;;;1.60;;
70052;SDS011;57398;52.032;4.376;2022-07-03T03:46:13;5.88;;;1.77;;
70052;SDS011;57398;52.032;4.376;2022-07-03T03:48:41;4.82;;;1.45;;
70052;SDS011;57398;52.032;4.376;2022-07-03T03:51:10;5.97;;;1.70;;
70052;SDS011;57398;52.032;4.376;2022-07-03T03:53:40;5.28;;;1.80;;
70052;SDS011;57398;52.032;4.376;2022-07-03T03:56:08;7.05;;;1.90;;
70052;SDS011;57398;52.032;4.376;2022-07-03T03:58:37;5.97;;;1.73;;
70052;SDS011;57398;52.032;4.376;2022-07-03T04:01:05;6.13;;;1.90;;
70052;SDS011;57398;52.032;4.376;2022-07-03T04:03:33;5.60;;;1.60;;
70052;SDS011;57398;52.032;4.376;2022-07-03T04:06:01;4.65;;;1.77;;
70052;SDS011;57398;52.032;4.376;2022-07-03T04:08:30;5.78;;;1.60;;
70052;SDS011;57398;52.032;4.376;2022-07-03T04:10:58;4.05;;;1.58;;
70052;SDS011;57398;52.032;4.376;2022-07-03T04:13:25;5.05;;;1.65;;
70052;SDS011;57398;52.032;4.376;2022-07-03T04:15:53;6.77;;;2.03;;
70052;SDS011;57398;52.032;4.376;2022-07-03T04:18:21;6.13;;;1.67;;
70052;SDS011;57398;52.032;4.376;2022-07-03T04:20:49;7.57;;;1.70;;
70052;SDS011;57398;52.032;4.376;2022-07-03T04:23:17;5.18;;;1.70;;
70052;SDS011;57398;52.032;4.376;2022-07-03T04:25:45;4.40;;;1.60;;
70052;SDS011;57398;52.032;4.376;2022-07-03T04:28:13;7.80;;;1.60;;
70052;SDS011;57398;52.032;4.376;2022-07-03T04:30:46;6.50;;;1.70;;
70052;SDS011;57398;52.032;4.376;2022-07-03T04:33:13;6.45;;;1.80;;
70052;SDS011;57398;52.032;4.376;2022-07-03T04:35:41;5.72;;;1.77;;
70052;SDS011;57398;52.032;4.376;2022-07-03T04:38:08;6.80;;;1.60;;
70052;SDS011;57398;52.032;4.376;2022-07-03T04:40:35;5.30;;;2.10;;
70052;SDS011;57398;52.032;4.376;2022-07-03T04:43:04;6.35;;;1.70;;
70052;SDS011;57398;52.032;4.376;2022-07-03T04:45:32;5.93;;;1.60;;
70052;SDS011;57398;52.032;4.376;2022-07-03T04:47:59;5.70;;;1.70;;
70052;SDS011;57398;52.032;4.376;2022-07-03T04:50:27;7.28;;;1.50;;
70052;SDS011;57398;52.032;4.376;2022-07-03T04:52:54;4.63;;;1.63;;
70052;SDS011;57398;52.032;4.376;2022-07-03T04:55:22;6.97;;;1.70;;
70052;SDS011;57398;52.032;4.376;2022-07-03T04:57:49;5.38;;;1.70;;
70052;SDS011;57398;52.032;4.376;2022-07-03T05:00:18;6.35;;;1.98;;
70052;SDS011;57398;52.032;4.376;2022-07-03T05:02:45;8.02;;;1.80;;
70052;SDS011;57398;52.032;4.376;2022-07-03T05:05:13;5.77;;;1.90;;
70052;SDS011;57398;52.032;4.376;2022-07-03T05:07:41;10.32;;;2.00;;
70052;SDS011;57398;52.032;4.376;2022-07-03T05:10:08;6.18;;;2.00;;
70052;SDS011;57398;52.032;4.376;2022-07-03T05:12:36;7.18;;;2.35;;
70052;SDS011;57398;52.032;4.376;2022-07-03T05:15:07;5.95;;;1.88;;
70052;SDS011;57398;52.032;4.376;2022-07-03T05:17:36;7.87;;;2.20;;
70052;SDS011;57398;52.032;4.376;2022-07-03T05:20:04;5.10;;;2.20;;
70052;SDS011;57398;52.032;4.376;2022-07-03T05:22:49;7.10;;;2.10;;
70052;SDS011;57398;52.032;4.376;2022-07-03T05:25:16;6.32;;;2.10;;
70052;SDS011;57398;52.032;4.376;2022-07-03T05:27:44;7.10;;;2.20;;
70052;SDS011;57398;52.032;4.376;2022-07-03T05:30:11;7.40;;;2.43;;
70052;SDS011;57398;52.032;4.376;2022-07-03T05:32:41;8.85;;;2.40;;
70052;SDS011;57398;52.032;4.376;2022-07-03T05:35:08;7.05;;;2.40;;
70052;SDS011;57398;52.032;4.376;2022-07-03T05:37:36;6.30;;;2.10;;
70052;SDS011;57398;52.032;4.376;2022-07-03T05:40:04;7.05;;;2.22;;
70052;SDS011;57398;52.032;4.376;2022-07-03T05:42:32;7.13;;;2.13;;
70052;SDS011;57398;52.032;4.376;2022-07-03T05:44:59;7.25;;;2.33;;
70052;SDS011;57398;52.032;4.376;2022-07-03T05:47:28;5.90;;;1.95;;
70052;SDS011;57398;52.032;4.376;2022-07-03T05:49:57;10.35;;;2.65;;
70052;SDS011;57398;52.032;4.376;2022-07-03T05:52:25;5.35;;;2.22;;
70052;SDS011;57398;52.032;4.376;2022-07-03T05:54:52;7.70;;;1.97;;
70052;SDS011;57398;52.032;4.376;2022-07-03T05:57:19;7.18;;;2.25;;
70052;SDS011;57398;52.032;4.376;2022-07-03T05:59:47;10.85;;;3.10;;
70052;SDS011;57398;52.032;4.376;2022-07-03T06:02:15;8.95;;;2.40;;
70052;SDS011;57398;52.032;4.376;2022-07-03T06:04:43;8.52;;;2.60;;
70052;SDS011;57398;52.032;4.376;2022-07-03T06:07:12;7.40;;;2.60;;
70052;SDS011;57398;52.032;4.376;2022-07-03T06:09:39;8.77;;;2.70;;
70052;SDS011;57398;52.032;4.376;2022-07-03T06:12:07;7.60;;;2.35;;
70052;SDS011;57398;52.032;4.376;2022-07-03T06:14:35;6.80;;;2.58;;
70052;SDS011;57398;52.032;4.376;2022-07-03T06:17:03;8.30;;;2.38;;
70052;SDS011;57398;52.032;4.376;2022-07-03T06:19:30;8.87;;;2.77;;
70052;SDS011;57398;52.032;4.376;2022-07-03T06:21:58;6.65;;;2.30;;
70052;SDS011;57398;52.032;4.376;2022-07-03T06:24:27;7.38;;;2.40;;
70052;SDS011;57398;52.032;4.376;2022-07-03T06:26:54;8.18;;;2.40;;
70052;SDS011;57398;52.032;4.376;2022-07-03T06:29:22;6.20;;;1.95;;
70052;SDS011;57398;52.032;4.376;2022-07-03T06:31:51;7.50;;;2.40;;
70052;SDS011;57398;52.032;4.376;2022-07-03T06:34:19;10.02;;;2.10;;
70052;SDS011;57398;52.032;4.376;2022-07-03T06:36:47;6.20;;;2.13;;
70052;SDS011;57398;52.032;4.376;2022-07-03T06:39:14;6.57;;;1.98;;
70052;SDS011;57398;52.032;4.376;2022-07-03T06:41:43;8.40;;;2.40;;
70052;SDS011;57398;52.032;4.376;2022-07-03T06:44:10;6.63;;;2.10;;
70052;SDS011;57398;52.032;4.376;2022-07-03T06:46:38;5.15;;;2.20;;
70052;SDS011;57398;52.032;4.376;2022-07-03T06:49:05;6.80;;;2.13;;
70052;SDS011;57398;52.032;4.376;2022-07-03T06:51:33;6.47;;;2.10;;
70052;SDS011;57398;52.032;4.376;2022-07-03T06:54:01;6.35;;;2.10;;
70052;SDS011;57398;52.032;4.376;2022-07-03T06:56:29;5.93;;;1.97;;
70052;SDS011;57398;52.032;4.376;2022-07-03T06:58:58;5.38;;;1.80;;
70052;SDS011;57398;52.032;4.376;2022-07-03T07:01:25;5.20;;;1.80;;
70052;SDS011;57398;52.032;4.376;2022-07-03T07:03:53;6.15;;;2.30;;
70052;SDS011;57398;52.032;4.376;2022-07-03T07:06:21;6.65;;;1.95;;
70052;SDS011;57398;52.032;4.376;2022-07-03T07:08:48;4.23;;;1.67;;
70052;SDS011;57398;52.032;4.376;2022-07-03T07:11:16;6.25;;;2.00;;
70052;SDS011;57398;52.032;4.376;2022-07-03T07:13:43;5.18;;;1.83;;
70052;SDS011;57398;52.032;4.376;2022-07-03T07:16:12;6.10;;;2.03;;
70052;SDS011;57398;52.032;4.376;2022-07-03T07:18:39;5.05;;;1.73;;
70052;SDS011;57398;52.032;4.376;2022-07-03T07:21:07;4.73;;;1.70;;
70052;SDS011;57398;52.032;4.376;2022-07-03T07:23:34;5.90;;;1.90;;
70052;SDS011;57398;52.032;4.376;2022-07-03T07:26:02;6.82;;;1.83;;
70052;SDS011;57398;52.032;4.376;2022-07-03T07:28:29;6.00;;;1.83;;
70052;SDS011;57398;52.032;4.376;2022-07-03T07:30:59;4.10;;;1.75;;
70052;SDS011;57398;52.032;4.376;2022-07-03T07:33:28;4.63;;;1.80;;
70052;SDS011;57398;52.032;4.376;2022-07-03T07:35:56;4.63;;;1.60;;
70052;SDS011;57398;52.032;4.376;2022-07-03T07:38:23;5.07;;;1.55;;
70052;SDS011;57398;52.032;4.376;2022-07-03T07:40:50;5.97;;;1.80;;
70052;SDS011;57398;52.032;4.376;2022-07-03T07:43:18;5.50;;;1.80;;
70052;SDS011;57398;52.032;4.376;2022-07-03T07:45:45;5.37;;;1.70;;
70052;SDS011;57398;52.032;4.376;2022-07-03T07:48:13;5.18;;;1.70;;
70052;SDS011;57398;52.032;4.376;2022-07-03T07:50:42;5.47;;;1.80;;
70052;SDS011;57398;52.032;4.376;2022-07-03T07:53:09;5.72;;;1.85;;
70052;SDS011;57398;52.032;4.376;2022-07-03T07:55:37;5.35;;;1.80;;
70052;SDS011;57398;52.032;4.376;2022-07-03T07:58:04;4.77;;;1.63;;
70052;SDS011;57398;52.032;4.376;2022-07-03T08:00:32;6.30;;;2.10;;
70052;SDS011;57398;52.032;4.376;2022-07-03T08:02:59;5.80;;;1.70;;
70052;SDS011;57398;52.032;4.376;2022-07-03T08:05:46;6.63;;;1.88;;
70052;SDS011;57398;52.032;4.376;2022-07-03T08:08:14;4.95;;;1.70;;
70052;SDS011;57398;52.032;4.376;2022-07-03T08:10:42;4.87;;;1.60;;
70052;SDS011;57398;52.032;4.376;2022-07-03T08:13:10;4.93;;;1.60;;
70052;SDS011;57398;52.032;4.376;2022-07-03T08:15:37;4.95;;;1.58;;
70052;SDS011;57398;52.032;4.376;2022-07-03T08:18:05;5.30;;;2.00;;
70052;SDS011;57398;52.032;4.376;2022-07-03T08:20:33;4.90;;;1.90;;
70052;SDS011;57398;52.032;4.376;2022-07-03T08:23:03;5.30;;;1.50;;
70052;SDS011;57398;52.032;4.376;2022-07-03T08:25:30;4.40;;;1.80;;
70052;SDS011;57398;52.032;4.376;2022-07-03T08:27:58;5.55;;;1.90;;
70052;SDS011;57398;52.032;4.376;2022-07-03T08:30:26;3.47;;;1.38;;
70052;SDS011;57398;52.032;4.376;2022-07-03T08:32:54;4.05;;;1.60;;
70052;SDS011;57398;52.032;4.376;2022-07-03T08:35:23;5.87;;;1.70;;
70052;SDS011;57398;52.032;4.376;2022-07-03T08:37:51;3.88;;;1.50;;
70052;SDS011;57398;52.032;4.376;2022-07-03T08:40:19;4.40;;;1.40;;
70052;SDS011;57398;52.032;4.376;2022-07-03T08:42:48;6.38;;;1.60;;
70052;SDS011;57398;52.032;4.376;2022-07-03T08:45:17;4.53;;;1.60;;
70052;SDS011;57398;52.032;4.376;2022-07-03T08:47:46;5.37;;;2.00;;
70052;SDS011;57398;52.032;4.376;2022-07-03T08:50:14;6.03;;;1.58;;
70052;SDS011;57398;52.032;4.376;2022-07-03T08:52:42;4.72;;;1.40;;
70052;SDS011;57398;52.032;4.376;2022-07-03T08:55:10;2.97;;;1.30;;
70052;SDS011;57398;52.032;4.376;2022-07-03T08:57:39;3.45;;;1.52;;
70052;SDS011;57398;52.032;4.376;2022-07-03T09:00:08;4.23;;;1.60;;
70052;SDS011;57398;52.032;4.376;2022-07-03T09:02:36;4.20;;;1.70;;
70052;SDS011;57398;52.032;4.376;2022-07-03T09:05:06;4.85;;;1.67;;
70052;SDS011;57398;52.032;4.376;2022-07-03T09:07:34;3.92;;;1.55;;
70052;SDS011;57398;52.032;4.376;2022-07-03T09:10:02;4.20;;;1.48;;
70052;SDS011;57398;52.032;4.376;2022-07-03T09:12:30;3.40;;;1.53;;
70052;SDS011;57398;52.032;4.376;2022-07-03T09:14:59;6.03;;;1.75;;
70052;SDS011;57398;52.032;4.376;2022-07-03T09:17:27;3.92;;;1.52;;
70052;SDS011;57398;52.032;4.376;2022-07-03T09:19:55;4.43;;;1.48;;
70052;SDS011;57398;52.032;4.376;2022-07-03T09:22:25;4.22;;;1.40;;
70052;SDS011;57398;52.032;4.376;2022-07-03T09:24:54;3.80;;;1.23;;
70052;SDS011;57398;52.032;4.376;2022-07-03T09:27:22;4.80;;;1.52;;
70052;SDS011;57398;52.032;4.376;2022-07-03T09:29:50;2.83;;;1.10;;
70052;SDS011;57398;52.032;4.376;2022-07-03T09:32:22;4.28;;;1.90;;
70052;SDS011;57398;52.032;4.376;2022-07-03T09:35:04;2.60;;;1.00;;
70052;SDS011;57398;52.032;4.376;2022-07-03T09:37:36;2.30;;;0.90;;
70052;SDS011;57398;52.032;4.376;2022-07-03T09:40:04;3.38;;;1.33;;
70052;SDS011;57398;52.032;4.376;2022-07-03T09:42:31;3.85;;;1.50;;
70052;SDS011;57398;52.032;4.376;2022-07-03T09:44:59;3.30;;;1.10;;
70052;SDS011;57398;52.032;4.376;2022-07-03T09:47:28;3.63;;;0.90;;
70052;SDS011;57398;52.032;4.376;2022-07-03T09:49:56;2.97;;;1.10;;
70052;SDS011;57398;52.032;4.376;2022-07-03T09:52:27;4.38;;;1.40;;
70052;SDS011;57398;52.032;4.376;2022-07-03T09:54:55;4.43;;;1.20;;
70052;SDS011;57398;52.032;4.376;2022-07-03T09:57:23;3.70;;;1.35;;
70052;SDS011;57398;52.032;4.376;2022-07-03T09:59:58;3.28;;;1.48;;
70052;SDS011;57398;52.032;4.376;2022-07-03T10:02:36;4.27;;;1.40;;
70052;SDS011;57398;52.032;4.376;2022-07-03T10:05:13;2.85;;;1.17;;
70052;SDS011;57398;52.032;4.376;2022-07-03T10:07:49;3.00;;;1.00;;
70052;SDS011;57398;52.032;4.376;2022-07-03T10:10:16;2.88;;;0.90;;
70052;SDS011;57398;52.032;4.376;2022-07-03T10:12:44;3.70;;;1.10;;
70052;SDS011;57398;52.032;4.376;2022-07-03T10:15:12;3.70;;;1.30;;
70052;SDS011;57398;52.032;4.376;2022-07-03T10:17:42;2.95;;;1.27;;
70052;SDS011;57398;52.032;4.376;2022-07-03T10:20:10;5.38;;;1.20;;
70052;SDS011;57398;52.032;4.376;2022-07-03T10:22:40;3.47;;;1.10;;
70052;SDS011;57398;52.032;4.376;2022-07-03T10:25:08;3.08;;;1.10;;
70052;SDS011;57398;52.032;4.376;2022-07-03T10:27:36;3.17;;;1.03;;
70052;SDS011;57398;52.032;4.376;2022-07-03T10:30:05;3.15;;;1.13;;
70052;SDS011;57398;52.032;4.376;2022-07-03T10:32:32;3.60;;;1.10;;
70052;SDS011;57398;52.032;4.376;2022-07-03T10:35:02;4.22;;;1.00;;
70052;SDS011;57398;52.032;4.376;2022-07-03T10:37:30;3.08;;;1.20;;
70052;SDS011;57398;52.032;4.376;2022-07-03T10:40:01;2.40;;;1.10;;
70052;SDS011;57398;52.032;4.376;2022-07-03T10:42:46;5.80;;;1.50;;
70052;SDS011;57398;52.032;4.376;2022-07-03T10:45:32;3.33;;;1.20;;
70052;SDS011;57398;52.032;4.376;2022-07-03T10:48:00;3.10;;;1.20;;
70052;SDS011;57398;52.032;4.376;2022-07-03T10:50:29;3.55;;;0.80;;
70052;SDS011;57398;52.032;4.376;2022-07-03T10:55:45;2.70;;;0.90;;
70052;SDS011;57398;52.032;4.376;2022-07-03T10:58:28;4.28;;;1.00;;
70052;SDS011;57398;52.032;4.376;2022-07-03T11:00:59;2.83;;;1.10;;
70052;SDS011;57398;52.032;4.376;2022-07-03T11:03:51;4.13;;;1.10;;
70052;SDS011;57398;52.032;4.376;2022-07-03T11:06:20;3.17;;;1.10;;
70052;SDS011;57398;52.032;4.376;2022-07-03T11:09:03;3.72;;;1.33;;
70052;SDS011;57398;52.032;4.376;2022-07-03T11:11:34;4.20;;;1.40;;
70052;SDS011;57398;52.032;4.376;2022-07-03T11:14:19;4.10;;;1.90;;
70052;SDS011;57398;52.032;4.376;2022-07-03T11:16:46;3.30;;;1.23;;
70052;SDS011;57398;52.032;4.376;2022-07-03T11:19:14;3.03;;;1.10;;
70052;SDS011;57398;52.032;4.376;2022-07-03T11:21:47;2.80;;;1.20;;
70052;SDS011;57398;52.032;4.376;2022-07-03T11:27:11;3.60;;;1.27;;
70052;SDS011;57398;52.032;4.376;2022-07-03T11:29:39;2.60;;;1.10;;
70052;SDS011;57398;52.032;4.376;2022-07-03T11:34:52;4.05;;;1.30;;
70052;SDS011;57398;52.032;4.376;2022-07-03T11:37:21;3.00;;;1.30;;
70052;SDS011;57398;52.032;4.376;2022-07-03T11:39:49;3.83;;;1.45;;
70052;SDS011;57398;52.032;4.376;2022-07-03T11:42:18;4.20;;;1.20;;
70052;SDS011;57398;52.032;4.376;2022-07-03T11:44:46;4.57;;;1.07;;
70052;SDS011;57398;52.032;4.376;2022-07-03T11:47:14;3.58;;;1.13;;
70052;SDS011;57398;52.032;4.376;2022-07-03T11:49:48;6.07;;;1.27;;
70052;SDS011;57398;52.032;4.376;2022-07-03T11:52:30;4.25;;;1.50;;
70052;SDS011;57398;52.032;4.376;2022-07-03T11:54:59;4.28;;;1.40;;
70052;SDS011;57398;52.032;4.376;2022-07-03T11:57:27;4.07;;;1.40;;
70052;SDS011;57398;52.032;4.376;2022-07-03T12:00:02;3.17;;;1.38;;
70052;SDS011;57398;52.032;4.376;2022-07-03T12:02:30;5.00;;;2.38;;
70052;SDS011;57398;52.032;4.376;2022-07-03T12:04:57;4.57;;;2.10;;
70052;SDS011;57398;52.032;4.376;2022-07-03T12:07:25;3.65;;;1.70;;
70052;SDS011;57398;52.032;4.376;2022-07-03T12:09:52;5.53;;;1.50;;
70052;SDS011;57398;52.032;4.376;2022-07-03T12:12:23;4.43;;;1.40;;
70052;SDS011;57398;52.032;4.376;2022-07-03T12:14:55;3.85;;;1.20;;
70052;SDS011;57398;52.032;4.376;2022-07-03T12:17:23;4.45;;;1.20;;
70052;SDS011;57398;52.032;4.376;2022-07-03T12:19:51;6.78;;;1.25;;
70052;SDS011;57398;52.032;4.376;2022-07-03T12:22:23;2.93;;;1.00;;
70052;SDS011;57398;52.032;4.376;2022-07-03T12:24:57;4.55;;;0.85;;
70052;SDS011;57398;52.032;4.376;2022-07-03T12:27:28;3.97;;;1.20;;
70052;SDS011;57398;52.032;4.376;2022-07-03T12:29:55;3.97;;;1.20;;
70052;SDS011;57398;52.032;4.376;2022-07-03T12:32:23;3.20;;;1.20;;
70052;SDS011;57398;52.032;4.376;2022-07-03T12:34:53;4.53;;;1.40;;
70052;SDS011;57398;52.032;4.376;2022-07-03T12:37:30;4.15;;;1.42;;
70052;SDS011;57398;52.032;4.376;2022-07-03T12:39:58;3.63;;;1.30;;
70052;SDS011;57398;52.032;4.376;2022-07-03T12:42:25;4.88;;;1.33;;
70052;SDS011;57398;52.032;4.376;2022-07-03T12:44:58;3.58;;;1.50;;
70052;SDS011;57398;52.032;4.376;2022-07-03T12:47:26;3.70;;;1.47;;
70052;SDS011;57398;52.032;4.376;2022-07-03T12:49:57;4.88;;;1.90;;
70052;SDS011;57398;52.032;4.376;2022-07-03T12:52:26;4.25;;;1.75;;
70052;SDS011;57398;52.032;4.376;2022-07-03T12:54:54;6.32;;;1.58;;
70052;SDS011;57398;52.032;4.376;2022-07-03T12:57:22;5.00;;;1.88;;
70052;SDS011;57398;52.032;4.376;2022-07-03T13:00:09;4.90;;;1.67;;
70052;SDS011;57398;52.032;4.376;2022-07-03T13:02:38;3.88;;;1.80;;
70052;SDS011;57398;52.032;4.376;2022-07-03T13:05:15;4.43;;;1.90;;
70052;SDS011;57398;52.032;4.376;2022-07-03T13:07:43;4.57;;;1.70;;
70052;SDS011;57398;52.032;4.376;2022-07-03T13:10:11;5.65;;;1.92;;
70052;SDS011;57398;52.032;4.376;2022-07-03T13:12:49;4.63;;;1.77;;
70052;SDS011;57398;52.032;4.376;2022-07-03T13:15:18;6.28;;;1.90;;
70052;SDS011;57398;52.032;4.376;2022-07-03T13:17:50;4.30;;;1.73;;
70052;SDS011;57398;52.032;4.376;2022-07-03T13:20:17;6.30;;;2.10;;
70052;SDS011;57398;52.032;4.376;2022-07-03T13:22:46;5.13;;;1.90;;
70052;SDS011;57398;52.032;4.376;2022-07-03T13:25:14;5.00;;;1.90;;
70052;SDS011;57398;52.032;4.376;2022-07-03T13:27:42;6.57;;;2.10;;
70052;SDS011;57398;52.032;4.376;2022-07-03T13:30:11;5.03;;;2.05;;
70052;SDS011;57398;52.032;4.376;2022-07-03T13:32:40;4.47;;;1.98;;
70052;SDS011;57398;52.032;4.376;2022-07-03T13:35:08;4.70;;;2.20;;
70052;SDS011;57398;52.032;4.376;2022-07-03T13:37:36;5.47;;;1.87;;
70052;SDS011;57398;52.032;4.376;2022-07-03T13:40:04;4.40;;;1.95;;
70052;SDS011;57398;52.032;4.376;2022-07-03T13:42:32;6.45;;;2.17;;
70052;SDS011;57398;52.032;4.376;2022-07-03T13:44:59;9.52;;;2.35;;
70052;SDS011;57398;52.032;4.376;2022-07-03T13:47:26;5.95;;;2.20;;
70052;SDS011;57398;52.032;4.376;2022-07-03T13:49:55;5.77;;;1.90;;
70052;SDS011;57398;52.032;4.376;2022-07-03T13:52:23;5.50;;;1.75;;
70052;SDS011;57398;52.032;4.376;2022-07-03T13:54:50;5.57;;;1.90;;
70052;SDS011;57398;52.032;4.376;2022-07-03T13:57:18;6.60;;;2.28;;
70052;SDS011;57398;52.032;4.376;2022-07-03T13:59:45;5.28;;;2.05;;
70052;SDS011;57398;52.032;4.376;2022-07-03T14:02:13;6.27;;;1.80;;
70052;SDS011;57398;52.032;4.376;2022-07-03T14:04:41;6.15;;;1.80;;
70052;SDS011;57398;52.032;4.376;2022-07-03T14:07:16;6.65;;;1.80;;
70052;SDS011;57398;52.032;4.376;2022-07-03T14:09:44;5.93;;;1.80;;
70052;SDS011;57398;52.032;4.376;2022-07-03T14:12:11;4.47;;;1.60;;
70052;SDS011;57398;52.032;4.376;2022-07-03T14:14:39;6.20;;;1.70;;
70052;SDS011;57398;52.032;4.376;2022-07-03T14:17:07;6.13;;;1.70;;
70052;SDS011;57398;52.032;4.376;2022-07-03T14:19:34;6.07;;;2.05;;
70052;SDS011;57398;52.032;4.376;2022-07-03T14:22:02;4.93;;;1.95;;
70052;SDS011;57398;52.032;4.376;2022-07-03T14:24:31;4.57;;;2.00;;
70052;SDS011;57398;52.032;4.376;2022-07-03T14:26:58;5.53;;;2.07;;
70052;SDS011;57398;52.032;4.376;2022-07-03T14:29:43;4.63;;;1.92;;
70052;SDS011;57398;52.032;4.376;2022-07-03T14:32:28;4.20;;;1.80;;
70052;SDS011;57398;52.032;4.376;2022-07-03T14:34:56;4.65;;;1.70;;
70052;SDS011;57398;52.032;4.376;2022-07-03T14:37:23;6.05;;;1.73;;
70052;SDS011;57398;52.032;4.376;2022-07-03T14:39:52;6.00;;;1.80;;
70052;SDS011;57398;52.032;4.376;2022-07-03T14:42:20;5.25;;;2.20;;
70052;SDS011;57398;52.032;4.376;2022-07-03T14:44:47;5.80;;;1.90;;
70052;SDS011;57398;52.032;4.376;2022-07-03T14:47:15;7.72;;;1.80;;
70052;SDS011;57398;52.032;4.376;2022-07-03T14:49:43;4.20;;;1.55;;
70052;SDS011;57398;52.032;4.376;2022-07-03T14:52:11;4.60;;;1.70;;
70052;SDS011;57398;52.032;4.376;2022-07-03T14:54:38;7.32;;;2.20;;
70052;SDS011;57398;52.032;4.376;2022-07-03T14:57:13;5.35;;;1.70;;
70052;SDS011;57398;52.032;4.376;2022-07-03T14:59:46;5.93;;;2.20;;
70052;SDS011;57398;52.032;4.376;2022-07-03T15:02:18;5.72;;;1.90;;
70052;SDS011;57398;52.032;4.376;2022-07-03T15:04:52;5.10;;;1.60;;
70052;SDS011;57398;52.032;4.376;2022-07-03T15:07:23;4.70;;;1.50;;
70052;SDS011;57398;52.032;4.376;2022-07-03T15:09:53;5.82;;;1.50;;
70052;SDS011;57398;52.032;4.376;2022-07-03T15:12:23;4.43;;;1.52;;